createdAt,value
2019-03-13T00:02:24.624Z,24.23
2019-03-13T00:05:06.931Z,21.40
2019-03-13T00:07:37.322Z,22.87
2019-03-13T00:10:08.574Z,23.77
2019-03-13T00:12:39.247Z,22.30
2019-03-13T00:15:09.714Z,20.63
2019-03-13T00:17:40.412Z,21.90
2019-03-13T00:20:12.140Z,21.87
2019-03-13T00:22:42.901Z,21.37
2019-03-13T00:25:13.376Z,19.40
2019-03-13T00:27:43.941Z,21.47
2019-03-13T00:30:14.229Z,21.97
2019-03-13T00:32:45.520Z,19.10
2019-03-13T00:35:16.833Z,20.43
2019-03-13T00:37:48.302Z,20.67
2019-03-13T00:40:20.785Z,20.60
2019-03-13T00:42:51.543Z,19.60
2019-03-13T00:45:23.218Z,21.20
2019-03-13T00:47:53.467Z,18.70
2019-03-13T00:50:25.680Z,19.33
2019-03-13T00:52:56.196Z,20.43
2019-03-13T00:55:26.625Z,18.63
2019-03-13T00:57:56.985Z,18.00
2019-03-13T01:00:48.967Z,18.73
2019-03-13T01:03:36.905Z,19.37
2019-03-13T01:06:09.871Z,18.43
2019-03-13T01:08:40.975Z,17.83
2019-03-13T01:11:11.232Z,19.23
2019-03-13T01:13:41.647Z,17.33
2019-03-13T01:16:12.010Z,16.37
2019-03-13T01:18:42.507Z,19.53
2019-03-13T01:21:12.777Z,17.90
2019-03-13T01:23:44.480Z,18.80
2019-03-13T01:26:15.001Z,17.97
2019-03-13T01:28:45.384Z,18.30
2019-03-13T01:31:38.304Z,16.20
2019-03-13T01:34:25.160Z,18.80
2019-03-13T01:36:56.069Z,18.00
2019-03-13T01:39:26.399Z,18.73
2019-03-13T01:41:56.795Z,18.87
2019-03-13T01:44:28.511Z,16.37
2019-03-13T01:46:59.062Z,18.47
2019-03-13T01:49:30.327Z,15.47
2019-03-13T01:52:00.869Z,16.93
2019-03-13T01:54:33.182Z,15.57
2019-03-13T01:57:04.011Z,15.73
2019-03-13T01:59:36.023Z,16.77
2019-03-13T02:02:06.591Z,17.03
2019-03-13T02:04:37.826Z,14.77
2019-03-13T02:07:08.540Z,15.63
2019-03-13T02:09:39.791Z,15.37
2019-03-13T02:12:10.151Z,14.33
2019-03-13T02:14:41.087Z,18.73
2019-03-13T02:17:11.646Z,15.53
2019-03-13T02:19:42.146Z,16.27
2019-03-13T02:22:12.700Z,15.47
2019-03-13T02:24:43.559Z,15.63
2019-03-13T02:27:14.272Z,16.80
2019-03-13T02:29:45.791Z,15.50
2019-03-13T02:32:17.643Z,15.20
2019-03-13T02:34:48.124Z,15.23
2019-03-13T02:37:18.922Z,15.43
2019-03-13T02:39:49.467Z,15.30
2019-03-13T02:42:21.364Z,14.27
2019-03-13T02:44:54.713Z,14.63
2019-03-13T02:47:26.312Z,15.13
2019-03-13T02:49:59.337Z,15.90
2019-03-13T02:52:32.701Z,17.10
2019-03-13T02:55:05.498Z,14.07
2019-03-13T02:57:37.908Z,13.50
2019-03-13T03:00:11.381Z,14.53
2019-03-13T03:02:54.907Z,15.73
2019-03-13T03:05:27.575Z,14.50
2019-03-13T03:08:02.596Z,13.93
2019-03-13T03:10:37.504Z,14.40
2019-03-13T03:13:15.655Z,14.13
2019-03-13T03:15:52.274Z,15.37
2019-03-13T03:18:29.908Z,15.73
2019-03-13T03:21:08.063Z,13.90
2019-03-13T03:23:45.139Z,15.90
2019-03-13T03:26:20.177Z,14.73
2019-03-13T03:28:53.287Z,14.77
2019-03-13T03:31:26.438Z,15.17
2019-03-13T03:34:06.340Z,14.70
2019-03-13T03:36:40.211Z,15.23
2019-03-13T03:39:13.183Z,14.30
2019-03-13T03:41:45.091Z,15.17
2019-03-13T03:44:19.363Z,15.10
2019-03-13T03:46:53.671Z,14.23
2019-03-13T03:49:24.426Z,13.77
2019-03-13T03:51:56.677Z,14.87
2019-03-13T03:54:27.381Z,14.63
2019-03-13T03:57:00.057Z,20.70
2019-03-13T03:59:30.300Z,17.10
2019-03-13T04:02:01.277Z,14.83
2019-03-13T04:04:32.341Z,17.07
2019-03-13T04:07:03.555Z,15.17
2019-03-13T04:09:34.901Z,13.57
2019-03-13T04:12:07.409Z,13.67
2019-03-13T04:14:38.310Z,13.97
2019-03-13T04:17:08.994Z,13.33
2019-03-13T04:19:39.388Z,15.37
2019-03-13T04:22:09.764Z,17.67
2019-03-13T04:25:10.179Z,16.80
2019-03-13T04:27:41.928Z,17.33
2019-03-13T04:30:12.796Z,17.30
2019-03-13T04:32:43.102Z,16.97
2019-03-13T04:35:13.318Z,16.27
2019-03-13T04:37:44.358Z,14.83
2019-03-13T04:40:14.778Z,17.30
2019-03-13T04:42:45.069Z,14.67
2019-03-13T04:45:15.225Z,19.93
2019-03-13T04:47:45.419Z,14.57
2019-03-13T04:50:15.512Z,16.43
2019-03-13T04:52:45.552Z,14.70
2019-03-13T04:55:15.675Z,18.07
2019-03-13T04:57:45.976Z,14.43
2019-03-13T05:00:15.992Z,15.27
2019-03-13T05:02:46.167Z,17.80
2019-03-13T05:05:59.057Z,14.07
2019-03-13T05:09:02.086Z,14.20
2019-03-13T05:11:33.953Z,14.73
2019-03-13T05:14:04.033Z,15.07
2019-03-13T05:16:34.147Z,15.93
2019-03-13T05:19:04.293Z,13.33
2019-03-13T05:21:34.394Z,16.53
2019-03-13T05:24:04.822Z,15.37
2019-03-13T05:26:35.051Z,13.33
2019-03-13T05:29:05.219Z,14.37
2019-03-13T05:31:35.482Z,14.63
2019-03-13T05:34:05.533Z,14.67
2019-03-13T05:36:35.889Z,12.03
2019-03-13T05:39:07.598Z,12.87
2019-03-13T05:41:37.809Z,12.93
2019-03-13T05:44:07.982Z,13.80
2019-03-13T05:46:38.151Z,12.83
2019-03-13T05:49:08.281Z,12.83
2019-03-13T05:51:38.411Z,12.97
2019-03-13T05:54:08.598Z,12.00
2019-03-13T05:56:40.790Z,12.47
2019-03-13T05:59:11.220Z,13.87
2019-03-13T06:01:41.621Z,15.40
2019-03-13T06:04:11.723Z,11.83
2019-03-13T06:06:41.989Z,13.07
2019-03-13T06:09:12.422Z,14.53
2019-03-13T06:11:43.323Z,15.70
2019-03-13T06:14:14.479Z,16.43
2019-03-13T06:16:45.753Z,19.07
2019-03-13T06:19:15.904Z,17.83
2019-03-13T06:21:46.185Z,21.37
2019-03-13T06:24:16.406Z,19.77
2019-03-13T06:26:46.502Z,19.70
2019-03-13T06:29:16.475Z,20.93
2019-03-13T06:31:46.588Z,14.80
2019-03-13T06:34:16.846Z,18.80
2019-03-13T06:36:47.005Z,17.27
2019-03-13T06:39:17.057Z,18.20
2019-03-13T06:41:47.289Z,15.90
2019-03-13T06:44:17.477Z,16.90
2019-03-13T06:46:47.581Z,22.40
2019-03-13T06:49:18.740Z,16.20
2019-03-13T06:51:48.887Z,18.00
2019-03-13T06:54:18.930Z,17.67
2019-03-13T06:56:48.993Z,16.17
2019-03-13T06:59:24.729Z,20.83
2019-03-13T07:02:29.370Z,21.57
2019-03-13T07:05:17.001Z,18.57
2019-03-13T07:08:07.694Z,23.60
2019-03-13T07:10:43.854Z,17.20
2019-03-13T07:13:51.597Z,14.37
2019-03-13T07:16:39.694Z,19.60
2019-03-13T07:19:28.288Z,16.33
2019-03-13T07:22:14.310Z,13.30
2019-03-13T07:25:13.170Z,18.13
2019-03-13T07:28:05.767Z,14.73
2019-03-13T07:30:50.812Z,17.27
2019-03-13T07:33:46.202Z,15.20
2019-03-13T07:36:35.430Z,17.37
2019-03-13T07:39:28.917Z,22.30
2019-03-13T07:42:06.242Z,16.73
2019-03-13T07:45:04.815Z,16.77
2019-03-13T07:47:51.046Z,14.63
2019-03-13T07:50:52.469Z,14.47
2019-03-13T07:53:40.414Z,19.07
2019-03-13T07:56:32.433Z,14.07
2019-03-13T07:59:16.637Z,15.57
2019-03-13T08:02:03.145Z,13.73
2019-03-13T08:05:07.606Z,17.70
2019-03-13T08:07:59.853Z,16.17
2019-03-13T08:10:47.613Z,12.67
2019-03-13T08:13:36.584Z,13.07
2019-03-13T08:16:37.910Z,18.37
2019-03-13T08:19:25.992Z,13.97
2019-03-13T08:22:15.067Z,15.90
2019-03-13T08:25:13.335Z,12.73
2019-03-13T08:28:03.320Z,12.03
2019-03-13T08:30:40.804Z,13.37
2019-03-13T08:33:24.214Z,13.80
2019-03-13T08:36:14.353Z,11.73
2019-03-13T08:39:00.978Z,14.50
2019-03-13T08:41:54.598Z,13.53
2019-03-13T08:44:49.407Z,16.53
2019-03-13T08:47:50.782Z,18.20
2019-03-13T08:50:34.089Z,13.23
2019-03-13T08:53:26.272Z,13.33
2019-03-13T08:56:15.999Z,12.80
2019-03-13T08:59:11.150Z,12.20
2019-03-13T09:01:56.043Z,12.70
2019-03-13T09:04:53.910Z,12.40
2019-03-13T09:07:41.781Z,13.00
2019-03-13T09:10:40.847Z,12.67
2019-03-13T09:13:21.455Z,11.40
2019-03-13T09:16:09.014Z,12.93
2019-03-13T09:19:01.218Z,12.40
2019-03-13T09:21:50.670Z,10.40
2019-03-13T09:24:29.598Z,11.63
2019-03-13T09:27:17.424Z,11.30
2019-03-13T09:30:06.466Z,12.53
2019-03-13T09:32:44.656Z,14.10
2019-03-13T09:35:25.704Z,13.47
2019-03-13T09:38:17.775Z,10.60
2019-03-13T09:41:01.951Z,11.70
2019-03-13T09:43:38.663Z,11.90
2019-03-13T09:46:19.729Z,12.23
2019-03-13T09:49:18.856Z,10.90
2019-03-13T09:52:13.126Z,10.03
2019-03-13T09:55:08.817Z,12.27
2019-03-13T09:57:58.817Z,13.97
2019-03-13T10:00:47.912Z,10.93
2019-03-13T10:03:41.870Z,11.40
2019-03-13T10:06:31.524Z,13.27
2019-03-13T10:09:27.524Z,10.73
2019-03-13T10:12:33.329Z,9.70
2019-03-13T10:15:23.567Z,10.37
2019-03-13T10:18:13.812Z,8.67
2019-03-13T10:21:01.620Z,8.77
2019-03-13T10:23:50.965Z,9.73
2019-03-13T10:26:40.204Z,10.20
2019-03-13T10:29:19.255Z,9.40
2019-03-13T10:32:08.622Z,10.57
2019-03-13T10:35:00.763Z,9.57
2019-03-13T10:37:41.464Z,9.83
2019-03-13T10:40:33.248Z,10.57
2019-03-13T10:43:31.675Z,10.03
2019-03-13T10:46:25.553Z,9.93
2019-03-13T10:49:03.738Z,9.13
2019-03-13T10:52:05.597Z,9.77
2019-03-13T10:54:53.425Z,8.53
2019-03-13T10:57:45.228Z,9.63
2019-03-13T11:00:33.375Z,9.53
2019-03-13T11:03:21.025Z,7.63
2019-03-13T11:06:23.071Z,8.33
2019-03-13T11:09:18.314Z,9.17
2019-03-13T11:12:02.782Z,8.10
2019-03-13T11:14:48.014Z,8.30
2019-03-13T11:17:59.896Z,9.23
2019-03-13T11:20:48.295Z,8.83
2019-03-13T11:23:39.305Z,7.87
2019-03-13T11:26:17.623Z,8.57
2019-03-13T11:29:06.656Z,9.10
2019-03-13T11:32:05.541Z,8.90
2019-03-13T11:34:54.777Z,9.33
2019-03-13T11:37:37.323Z,7.07
2019-03-13T11:40:28.209Z,7.13
2019-03-13T11:43:35.295Z,8.30
2019-03-13T11:46:28.433Z,9.67
2019-03-13T11:49:23.582Z,7.20
2019-03-13T11:52:21.933Z,10.83
2019-03-13T11:55:15.848Z,8.30
2019-03-13T11:58:02.026Z,7.73
2019-03-13T12:01:06.539Z,8.30
2019-03-13T12:04:01.659Z,7.90
2019-03-13T12:06:52.480Z,7.53
2019-03-13T12:09:38.017Z,10.50
2019-03-13T12:12:37.958Z,8.50
2019-03-13T12:15:44.484Z,9.10
2019-03-13T12:18:34.125Z,7.33
2019-03-13T12:21:30.174Z,8.30
2019-03-13T12:24:18.092Z,8.30
2019-03-13T12:27:10.479Z,8.87
2019-03-13T12:29:53.805Z,7.67
2019-03-13T12:32:31.354Z,8.17
2019-03-13T12:35:18.592Z,8.27
2019-03-13T12:37:59.866Z,10.63
2019-03-13T12:40:45.045Z,6.60
2019-03-13T12:43:23.142Z,7.77
2019-03-13T12:46:12.377Z,8.77
2019-03-13T12:49:10.579Z,8.70
2019-03-13T12:52:08.911Z,8.57
2019-03-13T12:54:56.833Z,7.17
2019-03-13T12:57:49.155Z,7.50
2019-03-13T13:00:41.168Z,7.53
2019-03-13T13:03:37.086Z,9.40
2019-03-13T13:06:42.920Z,7.23
2019-03-13T13:09:31.096Z,6.67
2019-03-13T13:12:26.125Z,12.90
2019-03-13T13:15:16.211Z,14.53
2019-03-13T13:18:08.008Z,11.03
2019-03-13T13:20:38.991Z,8.07
2019-03-13T13:23:09.746Z,8.00
2019-03-13T13:25:40.094Z,8.40
2019-03-13T13:28:10.202Z,8.03
2019-03-13T13:30:43.865Z,10.13
2019-03-13T13:33:14.215Z,8.37
2019-03-13T13:35:44.891Z,7.30
2019-03-13T13:38:15.533Z,8.33
2019-03-13T13:40:46.424Z,9.27
2019-03-13T13:43:16.905Z,9.07
2019-03-13T13:45:56.359Z,8.10
2019-03-13T13:48:29.286Z,7.47
2019-03-13T13:51:00.352Z,7.43
2019-03-13T13:53:31.981Z,10.23
2019-03-13T13:56:04.931Z,7.07
2019-03-13T13:58:35.550Z,6.20
2019-03-13T14:01:07.164Z,7.87
2019-03-13T14:03:39.531Z,8.57
2019-03-13T14:06:11.545Z,7.03
2019-03-13T14:08:42.076Z,8.50
2019-03-13T14:11:13.313Z,7.10
2019-03-13T14:13:44.370Z,6.90
2019-03-13T14:16:16.057Z,6.90
2019-03-13T14:18:46.991Z,8.37
2019-03-13T14:21:20.476Z,7.30
2019-03-13T14:23:51.920Z,6.40
2019-03-13T14:26:24.987Z,6.77
2019-03-13T14:28:57.666Z,7.93
2019-03-13T14:31:28.949Z,8.00
2019-03-13T14:34:00.051Z,8.80
2019-03-13T14:36:32.100Z,7.60
2019-03-13T14:39:03.367Z,7.00
2019-03-13T14:42:19.440Z,6.23
2019-03-13T14:44:53.079Z,8.67
2019-03-13T14:47:23.619Z,7.23
2019-03-13T14:49:55.093Z,6.93
2019-03-13T14:52:25.482Z,9.67
2019-03-13T14:54:55.772Z,8.37
2019-03-13T14:57:26.277Z,6.83
2019-03-13T14:59:56.462Z,7.93
2019-03-13T15:02:26.744Z,7.40
2019-03-13T15:04:56.854Z,7.00
2019-03-13T15:07:27.118Z,5.80
2019-03-13T15:09:59.142Z,7.33
2019-03-13T15:12:29.631Z,8.37
2019-03-13T15:15:19.929Z,6.97
2019-03-13T15:17:52.870Z,5.77
2019-03-13T15:20:23.831Z,6.03
2019-03-13T15:22:54.149Z,7.40
2019-03-13T15:25:24.715Z,6.63
2019-03-13T15:27:55.098Z,8.67
2019-03-13T15:30:27.063Z,8.93
2019-03-13T15:32:57.752Z,7.90
2019-03-13T15:35:30.309Z,6.83
2019-03-13T15:38:00.712Z,6.80
2019-03-13T15:40:34.883Z,7.03
2019-03-13T15:43:06.340Z,13.50
2019-03-13T15:45:37.785Z,9.27
2019-03-13T15:48:09.051Z,9.17
2019-03-13T15:50:40.970Z,8.50
2019-03-13T15:53:13.290Z,10.80
2019-03-13T15:55:48.534Z,10.20
2019-03-13T15:58:20.003Z,12.00
2019-03-13T16:00:52.218Z,11.20
2019-03-13T16:03:29.294Z,8.80
2019-03-13T16:06:03.311Z,8.83
2019-03-13T16:08:34.558Z,9.63
2019-03-13T16:11:15.251Z,9.80
2019-03-13T16:13:46.236Z,10.60
2019-03-13T16:16:17.467Z,10.57
2019-03-13T16:18:49.382Z,8.70
2019-03-13T16:21:21.858Z,9.93
2019-03-13T16:24:01.678Z,10.83
2019-03-13T16:26:34.592Z,11.93
2019-03-13T16:29:06.047Z,8.43
2019-03-13T16:31:42.725Z,10.57
2019-03-13T16:34:14.630Z,12.10
2019-03-13T16:36:46.486Z,11.53
2019-03-13T16:39:20.996Z,9.77
2019-03-13T16:42:00.195Z,15.50
2019-03-13T16:44:30.795Z,17.33
2019-03-13T16:47:06.519Z,14.67
2019-03-13T16:49:39.183Z,16.20
2019-03-13T16:52:09.463Z,12.87
2019-03-13T16:54:40.273Z,13.93
2019-03-13T16:57:11.409Z,13.43
2019-03-13T16:59:42.473Z,17.27
2019-03-13T17:02:14.517Z,12.40
2019-03-13T17:04:45.194Z,14.60
2019-03-13T17:07:16.970Z,15.00
2019-03-13T17:09:47.236Z,14.40
2019-03-13T17:12:18.355Z,11.80
2019-03-13T17:14:48.805Z,13.50
2019-03-13T17:17:19.511Z,16.77
2019-03-13T17:19:51.880Z,10.40
2019-03-13T17:22:22.185Z,10.93
2019-03-13T17:24:52.366Z,12.60
2019-03-13T17:27:22.973Z,10.40
2019-03-13T17:29:53.528Z,12.97
2019-03-13T17:32:24.110Z,12.87
2019-03-13T17:34:54.759Z,9.53
2019-03-13T17:37:25.472Z,10.27
2019-03-13T17:39:56.019Z,14.03
2019-03-13T17:42:27.527Z,12.43
2019-03-13T17:44:57.921Z,14.97
2019-03-13T17:47:29.247Z,9.93
2019-03-13T17:50:02.174Z,13.10
2019-03-13T17:52:34.529Z,10.37
2019-03-13T17:55:05.257Z,14.10
2019-03-13T17:57:38.431Z,9.73
2019-03-13T18:00:12.758Z,11.30
2019-03-13T18:02:43.060Z,12.50
2019-03-13T18:05:13.451Z,11.50
2019-03-13T18:07:44.210Z,10.63
2019-03-13T18:10:21.986Z,12.17
2019-03-13T18:12:52.326Z,10.13
2019-03-13T18:15:23.220Z,11.90
2019-03-13T18:17:53.600Z,12.73
2019-03-13T18:20:23.810Z,13.73
2019-03-13T18:22:54.467Z,13.37
2019-03-13T18:25:25.121Z,15.17
2019-03-13T18:27:55.669Z,13.97
2019-03-13T18:30:26.498Z,11.27
2019-03-13T18:32:56.955Z,10.00
2019-03-13T18:35:27.383Z,14.00
2019-03-13T18:37:57.759Z,14.93
2019-03-13T18:40:28.771Z,12.30
2019-03-13T18:42:59.425Z,15.77
2019-03-13T18:45:29.577Z,16.97
2019-03-13T18:47:59.785Z,12.40
2019-03-13T18:50:30.019Z,11.07
2019-03-13T18:53:00.277Z,12.17
2019-03-13T18:55:30.503Z,11.73
2019-03-13T18:58:03.547Z,11.00
2019-03-13T19:00:33.982Z,13.90
2019-03-13T19:03:06.938Z,11.73
2019-03-13T19:05:37.145Z,11.13
2019-03-13T19:08:07.541Z,13.60
2019-03-13T19:10:38.346Z,9.80
2019-03-13T19:13:08.662Z,11.30
2019-03-13T19:15:40.431Z,12.93
2019-03-13T19:18:10.990Z,12.43
2019-03-13T19:20:42.031Z,15.40
2019-03-13T19:23:14.445Z,12.70
2019-03-13T19:25:45.322Z,11.97
2019-03-13T19:28:17.395Z,12.73
2019-03-13T19:30:48.971Z,12.47
2019-03-13T19:33:21.528Z,11.53
2019-03-13T19:35:53.565Z,10.73
2019-03-13T19:38:28.759Z,14.00
2019-03-13T19:40:59.950Z,15.03
2019-03-13T19:43:30.981Z,12.77
2019-03-13T19:46:05.221Z,12.10
2019-03-13T19:48:38.391Z,13.00
2019-03-13T19:51:10.037Z,11.20
2019-03-13T19:53:42.984Z,15.30
2019-03-13T19:56:13.923Z,14.87
2019-03-13T19:58:45.350Z,18.77
2019-03-13T20:01:16.069Z,15.50
2019-03-13T20:03:55.252Z,15.07
2019-03-13T20:06:20.646Z,14.40
2019-03-13T20:08:51.405Z,13.70
2019-03-13T20:11:22.074Z,18.97
2019-03-13T20:13:52.838Z,14.20
2019-03-13T20:16:30.305Z,16.40
2019-03-13T20:19:12.756Z,14.60
2019-03-13T20:21:45.051Z,15.20
2019-03-13T20:24:15.754Z,20.27
2019-03-13T20:26:50.002Z,15.47
2019-03-13T20:29:21.056Z,18.03
2019-03-13T20:31:51.759Z,17.97
2019-03-13T20:34:22.729Z,14.40
2019-03-13T20:36:53.969Z,15.20
2019-03-13T20:39:26.950Z,14.10
2019-03-13T20:41:57.695Z,15.00
2019-03-13T20:44:28.125Z,12.63
2019-03-13T20:46:58.597Z,14.70
2019-03-13T20:49:31.380Z,13.17
2019-03-13T20:52:03.353Z,20.03
2019-03-13T20:54:33.876Z,13.47
2019-03-13T20:57:04.253Z,14.57
2019-03-13T20:59:36.237Z,15.83
2019-03-13T21:02:07.034Z,14.23
2019-03-13T21:04:38.665Z,15.90
2019-03-13T21:07:11.199Z,16.03
2019-03-13T21:09:42.671Z,13.40
2019-03-13T21:12:13.157Z,14.80
2019-03-13T21:14:43.634Z,14.40
2019-03-13T21:17:14.844Z,16.63
2019-03-13T21:19:45.245Z,14.50
2019-03-13T21:22:18.465Z,15.07
2019-03-13T21:24:49.111Z,15.77
2019-03-13T21:27:20.405Z,15.73
2019-03-13T21:29:52.761Z,12.97
2019-03-13T21:32:23.376Z,14.10
2019-03-13T21:34:55.864Z,16.27
2019-03-13T21:37:26.801Z,15.60
2019-03-13T21:40:13.909Z,13.43
2019-03-13T21:42:46.523Z,14.03
2019-03-13T21:45:22.765Z,15.13
2019-03-13T21:47:50.110Z,15.67
2019-03-13T21:50:20.760Z,13.50
2019-03-13T21:52:51.474Z,15.67
2019-03-13T21:55:22.478Z,14.87
2019-03-13T21:57:58.469Z,14.30
2019-03-13T22:00:29.603Z,13.53
2019-03-13T22:03:00.130Z,14.67
2019-03-13T22:05:31.843Z,14.87
2019-03-13T22:08:03.487Z,13.33
2019-03-13T22:10:34.170Z,14.73
2019-03-13T22:13:06.461Z,14.13
2019-03-13T22:15:37.277Z,13.97
2019-03-13T22:18:08.726Z,13.80
2019-03-13T22:20:39.701Z,13.40
2019-03-13T22:23:10.515Z,13.03
2019-03-13T22:25:42.514Z,14.70
2019-03-13T22:28:14.175Z,13.20
2019-03-13T22:30:45.429Z,14.10
2019-03-13T22:33:20.192Z,15.03
2019-03-13T22:36:00.157Z,13.20
2019-03-13T22:38:36.202Z,15.43
2019-03-13T22:41:11.570Z,13.67
2019-03-13T22:43:44.858Z,13.93
2019-03-13T22:46:15.300Z,12.67
2019-03-13T22:48:57.634Z,14.63
2019-03-13T22:51:18.514Z,12.63
2019-03-13T22:53:52.452Z,12.40
2019-03-13T22:56:29.371Z,14.07
2019-03-13T22:59:01.169Z,12.67
2019-03-13T23:01:33.817Z,12.93
2019-03-13T23:04:04.498Z,15.80
2019-03-13T23:06:36.381Z,14.13
2019-03-13T23:09:07.541Z,13.63
2019-03-13T23:11:38.302Z,13.43
2019-03-13T23:14:08.678Z,13.13
2019-03-13T23:16:40.291Z,13.20
2019-03-13T23:19:11.382Z,14.27
2019-03-13T23:21:42.434Z,14.93
2019-03-13T23:24:13.649Z,12.23
2019-03-13T23:26:44.664Z,12.43
2019-03-13T23:29:15.380Z,13.37
2019-03-13T23:31:45.833Z,13.67
2019-03-13T23:34:16.714Z,12.80
2019-03-13T23:36:48.476Z,12.50
2019-03-13T23:39:20.556Z,12.97
2019-03-13T23:41:51.377Z,12.27
2019-03-13T23:44:21.906Z,14.07
2019-03-13T23:46:53.268Z,12.20
2019-03-13T23:49:24.060Z,13.73
2019-03-13T23:51:54.709Z,13.03
2019-03-13T23:54:25.858Z,12.40
2019-03-13T23:57:04.907Z,11.93
2019-03-13T23:59:46.771Z,12.73
